sensor_id;sensor_type;location;lat;lon;timestamp;P1;durP1;ratioP1;P2;durP2;ratioP2
21416;SDS011;10869;52.238;10.716;2023-03-30T03:03:15;9.17;;;3.60;;
21416;SDS011;10869;52.238;10.716;2023-03-30T03:09:08;15.07;;;3.33;;
21416;SDS011;10869;52.238;10.716;2023-03-30T03:11:34;11.87;;;3.33;;
21416;SDS011;10869;52.238;10.716;2023-03-30T03:14:00;11.30;;;3.37;;
21416;SDS011;10869;52.238;10.716;2023-03-30T03:16:26;10.87;;;3.50;;
21416;SDS011;10869;52.238;10.716;2023-03-30T03:18:52;8.87;;;3.23;;
21416;SDS011;10869;52.238;10.716;2023-03-30T03:21:20;8.97;;;3.00;;
21416;SDS011;10869;52.238;10.716;2023-03-30T03:23:46;6.90;;;3.13;;
21416;SDS011;10869;52.238;10.716;2023-03-30T03:26:12;7.17;;;3.17;;
21416;SDS011;10869;52.238;10.716;2023-03-30T03:28:38;8.90;;;2.90;;
21416;SDS011;10869;52.238;10.716;2023-03-30T03:31:04;7.63;;;3.03;;
21416;SDS011;10869;52.238;10.716;2023-03-30T03:33:33;9.23;;;3.43;;
21416;SDS011;10869;52.238;10.716;2023-03-30T03:35:59;9.40;;;2.93;;
21416;SDS011;10869;52.238;10.716;2023-03-30T03:38:28;9.30;;;3.03;;
21416;SDS011;10869;52.238;10.716;2023-03-30T03:40:55;9.87;;;2.93;;
21416;SDS011;10869;52.238;10.716;2023-03-30T03:43:22;7.57;;;2.80;;
21416;SDS011;10869;52.238;10.716;2023-03-30T03:45:49;8.43;;;2.80;;
21416;SDS011;10869;52.238;10.716;2023-03-30T03:48:16;11.57;;;3.13;;
21416;SDS011;10869;52.238;10.716;2023-03-30T03:50:43;7.80;;;3.23;;
21416;SDS011;10869;52.238;10.716;2023-03-30T03:53:10;10.20;;;3.07;;
21416;SDS011;10869;52.238;10.716;2023-03-30T03:55:37;7.27;;;3.07;;
21416;SDS011;10869;52.238;10.716;2023-03-30T03:58:03;10.07;;;3.00;;
21416;SDS011;10869;52.238;10.716;2023-03-30T04:00:31;7.67;;;3.00;;
21416;SDS011;10869;52.238;10.716;2023-03-30T04:02:58;5.77;;;2.17;;
21416;SDS011;10869;52.238;10.716;2023-03-30T04:05:24;4.93;;;2.27;;
21416;SDS011;10869;52.238;10.716;2023-03-30T04:07:50;9.03;;;2.67;;
21416;SDS011;10869;52.238;10.716;2023-03-30T04:10:18;11.17;;;3.40;;
21416;SDS011;10869;52.238;10.716;2023-03-30T04:12:44;7.10;;;2.77;;
21416;SDS011;10869;52.238;10.716;2023-03-30T04:15:10;8.83;;;2.63;;
21416;SDS011;10869;52.238;10.716;2023-03-30T04:17:36;9.53;;;3.37;;
21416;SDS011;10869;52.238;10.716;2023-03-30T04:20:03;6.73;;;2.37;;
21416;SDS011;10869;52.238;10.716;2023-03-30T04:22:30;9.83;;;3.50;;
21416;SDS011;10869;52.238;10.716;2023-03-30T04:25:05;7.93;;;2.50;;
21416;SDS011;10869;52.238;10.716;2023-03-30T04:27:32;5.97;;;2.60;;
21416;SDS011;10869;52.238;10.716;2023-03-30T04:29:58;10.17;;;2.87;;
21416;SDS011;10869;52.238;10.716;2023-03-30T04:32:27;9.57;;;2.80;;
21416;SDS011;10869;52.238;10.716;2023-03-30T04:34:58;11.23;;;3.10;;
21416;SDS011;10869;52.238;10.716;2023-03-30T04:37:26;8.47;;;3.17;;
21416;SDS011;10869;52.238;10.716;2023-03-30T04:39:55;9.13;;;3.00;;
21416;SDS011;10869;52.238;10.716;2023-03-30T04:42:25;7.90;;;2.77;;
21416;SDS011;10869;52.238;10.716;2023-03-30T04:44:57;6.53;;;2.63;;
21416;SDS011;10869;52.238;10.716;2023-03-30T04:47:28;8.00;;;3.10;;
21416;SDS011;10869;52.238;10.716;2023-03-30T04:49:54;14.13;;;3.60;;
21416;SDS011;10869;52.238;10.716;2023-03-30T04:52:20;9.27;;;3.10;;
21416;SDS011;10869;52.238;10.716;2023-03-30T04:54:46;8.40;;;2.87;;
21416;SDS011;10869;52.238;10.716;2023-03-30T04:57:12;9.17;;;3.10;;
21416;SDS011;10869;52.238;10.716;2023-03-30T04:59:42;15.37;;;4.17;;
21416;SDS011;10869;52.238;10.716;2023-03-30T05:02:09;14.23;;;4.93;;
21416;SDS011;10869;52.238;10.716;2023-03-30T05:04:37;9.53;;;3.37;;
21416;SDS011;10869;52.238;10.716;2023-03-30T05:07:03;9.47;;;2.93;;
21416;SDS011;10869;52.238;10.716;2023-03-30T05:09:30;9.70;;;2.50;;
21416;SDS011;10869;52.238;10.716;2023-03-30T05:11:57;6.53;;;2.40;;
21416;SDS011;10869;52.238;10.716;2023-03-30T05:14:23;7.17;;;2.53;;
21416;SDS011;10869;52.238;10.716;2023-03-30T05:16:48;9.67;;;2.63;;
21416;SDS011;10869;52.238;10.716;2023-03-30T05:19:15;8.87;;;2.37;;
21416;SDS011;10869;52.238;10.716;2023-03-30T05:21:41;6.90;;;2.60;;
21416;SDS011;10869;52.238;10.716;2023-03-30T05:24:07;9.77;;;2.80;;
21416;SDS011;10869;52.238;10.716;2023-03-30T05:26:36;6.53;;;2.13;;
21416;SDS011;10869;52.238;10.716;2023-03-30T05:29:01;6.63;;;2.40;;
21416;SDS011;10869;52.238;10.716;2023-03-30T05:31:29;5.07;;;2.03;;
21416;SDS011;10869;52.238;10.716;2023-03-30T05:33:58;9.77;;;2.10;;
21416;SDS011;10869;52.238;10.716;2023-03-30T05:36:31;4.97;;;1.87;;
21416;SDS011;10869;52.238;10.716;2023-03-30T05:38:59;8.00;;;2.47;;
21416;SDS011;10869;52.238;10.716;2023-03-30T05:41:25;7.20;;;2.50;;
21416;SDS011;10869;52.238;10.716;2023-03-30T05:47:14;7.27;;;2.20;;
21416;SDS011;10869;52.238;10.716;2023-03-30T05:53:02;7.87;;;1.80;;
21416;SDS011;10869;52.238;10.716;2023-03-30T05:58:50;10.03;;;2.20;;
21416;SDS011;10869;52.238;10.716;2023-03-30T06:01:16;9.97;;;2.30;;
21416;SDS011;10869;52.238;10.716;2023-03-30T06:03:41;9.77;;;2.43;;
21416;SDS011;10869;52.238;10.716;2023-03-30T06:06:07;15.47;;;3.50;;
21416;SDS011;10869;52.238;10.716;2023-03-30T06:08:33;8.70;;;3.20;;
21416;SDS011;10869;52.238;10.716;2023-03-30T06:10:59;10.07;;;2.50;;
21416;SDS011;10869;52.238;10.716;2023-03-30T06:13:25;7.77;;;1.87;;
21416;SDS011;10869;52.238;10.716;2023-03-30T06:15:55;10.17;;;2.70;;
21416;SDS011;10869;52.238;10.716;2023-03-30T06:18:24;6.07;;;2.37;;
21416;SDS011;10869;52.238;10.716;2023-03-30T06:24:11;8.97;;;2.77;;
21416;SDS011;10869;52.238;10.716;2023-03-30T06:26:37;10.27;;;2.40;;
21416;SDS011;10869;52.238;10.716;2023-03-30T06:29:03;8.70;;;2.50;;
21416;SDS011;10869;52.238;10.716;2023-03-30T06:31:29;5.37;;;2.33;;
21416;SDS011;10869;52.238;10.716;2023-03-30T06:37:17;10.33;;;3.33;;
21416;SDS011;10869;52.238;10.716;2023-03-30T06:39:43;12.37;;;2.87;;
21416;SDS011;10869;52.238;10.716;2023-03-30T06:45:31;7.93;;;2.50;;
21416;SDS011;10869;52.238;10.716;2023-03-30T06:47:57;8.40;;;2.20;;
21416;SDS011;10869;52.238;10.716;2023-03-30T06:50:23;13.00;;;2.90;;
21416;SDS011;10869;52.238;10.716;2023-03-30T06:56:11;10.00;;;2.70;;
21416;SDS011;10869;52.238;10.716;2023-03-30T06:58:37;7.83;;;2.40;;
21416;SDS011;10869;52.238;10.716;2023-03-30T07:01:12;12.27;;;2.77;;
21416;SDS011;10869;52.238;10.716;2023-03-30T07:03:40;9.23;;;2.93;;
21416;SDS011;10869;52.238;10.716;2023-03-30T07:06:06;13.60;;;3.10;;
21416;SDS011;10869;52.238;10.716;2023-03-30T07:11:55;7.73;;;2.40;;
21416;SDS011;10869;52.238;10.716;2023-03-30T07:21:04;10.97;;;2.43;;
21416;SDS011;10869;52.238;10.716;2023-03-30T07:23:30;8.73;;;2.10;;
21416;SDS011;10869;52.238;10.716;2023-03-30T07:25:56;8.93;;;2.60;;
21416;SDS011;10869;52.238;10.716;2023-03-30T07:28:22;11.43;;;2.37;;
21416;SDS011;10869;52.238;10.716;2023-03-30T07:30:49;11.07;;;2.57;;
21416;SDS011;10869;52.238;10.716;2023-03-30T07:33:14;13.43;;;3.00;;
21416;SDS011;10869;52.238;10.716;2023-03-30T07:35:44;7.80;;;2.30;;
21416;SDS011;10869;52.238;10.716;2023-03-30T07:38:11;11.20;;;2.73;;
21416;SDS011;10869;52.238;10.716;2023-03-30T07:40:38;9.57;;;2.40;;
21416;SDS011;10869;52.238;10.716;2023-03-30T07:43:05;6.33;;;2.33;;
21416;SDS011;10869;52.238;10.716;2023-03-30T07:45:31;9.60;;;2.00;;
21416;SDS011;10869;52.238;10.716;2023-03-30T07:47:57;8.90;;;2.03;;
21416;SDS011;10869;52.238;10.716;2023-03-30T07:50:23;11.70;;;2.30;;
21416;SDS011;10869;52.238;10.716;2023-03-30T07:52:50;8.17;;;2.73;;
21416;SDS011;10869;52.238;10.716;2023-03-30T07:55:16;10.17;;;2.20;;
21416;SDS011;10869;52.238;10.716;2023-03-30T07:57:42;9.60;;;2.17;;
21416;SDS011;10869;52.238;10.716;2023-03-30T08:00:08;7.97;;;2.37;;
21416;SDS011;10869;52.238;10.716;2023-03-30T08:02:35;6.60;;;1.93;;
21416;SDS011;10869;52.238;10.716;2023-03-30T08:05:01;9.63;;;2.53;;
21416;SDS011;10869;52.238;10.716;2023-03-30T08:07:27;10.03;;;2.17;;
21416;SDS011;10869;52.238;10.716;2023-03-30T08:09:54;7.60;;;2.30;;
21416;SDS011;10869;52.238;10.716;2023-03-30T08:12:20;9.93;;;2.57;;
21416;SDS011;10869;52.238;10.716;2023-03-30T08:14:45;10.43;;;2.13;;
21416;SDS011;10869;52.238;10.716;2023-03-30T08:17:11;18.13;;;2.70;;
21416;SDS011;10869;52.238;10.716;2023-03-30T08:19:37;7.17;;;2.73;;
21416;SDS011;10869;52.238;10.716;2023-03-30T08:22:03;9.23;;;2.23;;
21416;SDS011;10869;52.238;10.716;2023-03-30T08:24:29;9.80;;;2.20;;
21416;SDS011;10869;52.238;10.716;2023-03-30T08:26:54;9.33;;;2.00;;
21416;SDS011;10869;52.238;10.716;2023-03-30T08:29:20;11.57;;;2.10;;
21416;SDS011;10869;52.238;10.716;2023-03-30T08:31:46;7.50;;;2.40;;
21416;SDS011;10869;52.238;10.716;2023-03-30T08:34:12;7.67;;;2.57;;
21416;SDS011;10869;52.238;10.716;2023-03-30T08:36:38;12.70;;;3.10;;
21416;SDS011;10869;52.238;10.716;2023-03-30T08:39:04;9.67;;;2.60;;
21416;SDS011;10869;52.238;10.716;2023-03-30T08:44:41;11.10;;;2.57;;
21416;SDS011;10869;52.238;10.716;2023-03-30T08:47:12;13.30;;;3.37;;
21416;SDS011;10869;52.238;10.716;2023-03-30T08:52:29;9.63;;;3.43;;
21416;SDS011;10869;52.238;10.716;2023-03-30T08:54:56;9.37;;;2.63;;
21416;SDS011;10869;52.238;10.716;2023-03-30T08:57:47;12.13;;;2.50;;
21416;SDS011;10869;52.238;10.716;2023-03-30T09:38:32;10.37;;;2.73;;
21416;SDS011;10869;52.238;10.716;2023-03-30T09:41:10;13.50;;;2.70;;
21416;SDS011;10869;52.238;10.716;2023-03-30T09:44:02;10.07;;;2.83;;
21416;SDS011;10869;52.238;10.716;2023-03-30T09:46:36;8.03;;;2.57;;
21416;SDS011;10869;52.238;10.716;2023-03-30T09:58:19;10.57;;;2.73;;
21416;SDS011;10869;52.238;10.716;2023-03-30T10:01:33;9.43;;;3.03;;
21416;SDS011;10869;52.238;10.716;2023-03-30T10:06:47;11.43;;;3.00;;
21416;SDS011;10869;52.238;10.716;2023-03-30T10:09:16;14.07;;;2.83;;
21416;SDS011;10869;52.238;10.716;2023-03-30T10:12:03;13.23;;;2.90;;
21416;SDS011;10869;52.238;10.716;2023-03-30T10:14:34;13.80;;;2.93;;
21416;SDS011;10869;52.238;10.716;2023-03-30T10:17:23;14.53;;;3.20;;
21416;SDS011;10869;52.238;10.716;2023-03-30T10:19:51;7.90;;;2.50;;
21416;SDS011;10869;52.238;10.716;2023-03-30T10:36:04;12.13;;;3.00;;
21416;SDS011;10869;52.238;10.716;2023-03-30T10:38:33;11.07;;;2.93;;
21416;SDS011;10869;52.238;10.716;2023-03-30T10:41:06;11.27;;;3.20;;
21416;SDS011;10869;52.238;10.716;2023-03-30T10:43:47;13.43;;;2.83;;
21416;SDS011;10869;52.238;10.716;2023-03-30T10:46:18;8.00;;;2.93;;
21416;SDS011;10869;52.238;10.716;2023-03-30T10:54:16;9.73;;;3.37;;
21416;SDS011;10869;52.238;10.716;2023-03-30T10:56:59;10.57;;;3.23;;
21416;SDS011;10869;52.238;10.716;2023-03-30T11:02:38;8.10;;;2.67;;
21416;SDS011;10869;52.238;10.716;2023-03-30T11:05:14;8.43;;;2.87;;
21416;SDS011;10869;52.238;10.716;2023-03-30T11:10:40;9.87;;;3.63;;
21416;SDS011;10869;52.238;10.716;2023-03-30T11:16:26;12.27;;;3.27;;
21416;SDS011;10869;52.238;10.716;2023-03-30T11:19:14;10.60;;;3.60;;
21416;SDS011;10869;52.238;10.716;2023-03-30T11:24:55;15.67;;;4.03;;
21416;SDS011;10869;52.238;10.716;2023-03-30T11:32:58;13.20;;;6.03;;
21416;SDS011;10869;52.238;10.716;2023-03-30T11:44:24;8.70;;;3.17;;
21416;SDS011;10869;52.238;10.716;2023-03-30T11:52:01;6.73;;;2.13;;
21416;SDS011;10869;52.238;10.716;2023-03-30T11:54:50;6.33;;;1.93;;
21416;SDS011;10869;52.238;10.716;2023-03-30T12:13:11;8.93;;;1.20;;
21416;SDS011;10869;52.238;10.716;2023-03-30T12:23:00;3.97;;;1.57;;
21416;SDS011;10869;52.238;10.716;2023-03-30T12:52:23;5.57;;;1.40;;
21416;SDS011;10869;52.238;10.716;2023-03-30T13:03:54;11.77;;;3.03;;
21416;SDS011;10869;52.238;10.716;2023-03-30T13:29:53;11.07;;;2.37;;
21416;SDS011;10869;52.238;10.716;2023-03-30T13:42:03;14.37;;;3.07;;
21416;SDS011;10869;52.238;10.716;2023-03-30T13:48:10;10.67;;;2.50;;
21416;SDS011;10869;52.238;10.716;2023-03-30T13:51:08;8.90;;;1.77;;
21416;SDS011;10869;52.238;10.716;2023-03-30T13:57:05;5.87;;;1.20;;
21416;SDS011;10869;52.238;10.716;2023-03-30T14:03:16;8.53;;;2.17;;
21416;SDS011;10869;52.238;10.716;2023-03-30T14:06:05;8.20;;;1.80;;
21416;SDS011;10869;52.238;10.716;2023-03-30T14:08:40;9.23;;;1.60;;
21416;SDS011;10869;52.238;10.716;2023-03-30T14:14:34;6.03;;;1.80;;
21416;SDS011;10869;52.238;10.716;2023-03-30T14:17:36;9.60;;;1.57;;
21416;SDS011;10869;52.238;10.716;2023-03-30T14:23:30;7.67;;;1.60;;
21416;SDS011;10869;52.238;10.716;2023-03-30T14:25:59;7.37;;;1.43;;
21416;SDS011;10869;52.238;10.716;2023-03-30T14:28:28;4.97;;;1.20;;
21416;SDS011;10869;52.238;10.716;2023-03-30T14:31:17;7.20;;;1.70;;
21416;SDS011;10869;52.238;10.716;2023-03-30T14:33:49;6.20;;;1.57;;
21416;SDS011;10869;52.238;10.716;2023-03-30T14:36:18;7.73;;;1.70;;
21416;SDS011;10869;52.238;10.716;2023-03-30T14:38:52;5.10;;;1.50;;
21416;SDS011;10869;52.238;10.716;2023-03-30T14:41:22;7.27;;;1.37;;
21416;SDS011;10869;52.238;10.716;2023-03-30T14:47:21;8.87;;;2.50;;
21416;SDS011;10869;52.238;10.716;2023-03-30T14:53:36;7.83;;;1.83;;
21416;SDS011;10869;52.238;10.716;2023-03-30T15:40:25;12.83;;;2.93;;
21416;SDS011;10869;52.238;10.716;2023-03-30T15:46:30;9.53;;;2.40;;
21416;SDS011;10869;52.238;10.716;2023-03-30T15:59:43;11.27;;;2.63;;
21416;SDS011;10869;52.238;10.716;2023-03-30T16:02:20;10.23;;;2.60;;
21416;SDS011;10869;52.238;10.716;2023-03-30T16:04:49;10.83;;;2.50;;
21416;SDS011;10869;52.238;10.716;2023-03-30T16:07:18;9.97;;;2.03;;
21416;SDS011;10869;52.238;10.716;2023-03-30T16:09:48;7.13;;;1.80;;
21416;SDS011;10869;52.238;10.716;2023-03-30T16:12:16;10.70;;;2.40;;
21416;SDS011;10869;52.238;10.716;2023-03-30T16:15:03;9.27;;;2.20;;
21416;SDS011;10869;52.238;10.716;2023-03-30T16:17:57;15.67;;;2.73;;
21416;SDS011;10869;52.238;10.716;2023-03-30T18:01:45;19.13;;;5.80;;
21416;SDS011;10869;52.238;10.716;2023-03-30T18:04:19;14.70;;;4.67;;
21416;SDS011;10869;52.238;10.716;2023-03-30T18:06:45;12.77;;;3.93;;
21416;SDS011;10869;52.238;10.716;2023-03-30T18:09:13;13.67;;;4.67;;
21416;SDS011;10869;52.238;10.716;2023-03-30T18:15:07;10.87;;;3.53;;
21416;SDS011;10869;52.238;10.716;2023-03-30T18:26:09;11.37;;;3.50;;
21416;SDS011;10869;52.238;10.716;2023-03-30T18:28:47;11.50;;;3.00;;
21416;SDS011;10869;52.238;10.716;2023-03-30T18:31:15;9.23;;;2.93;;
21416;SDS011;10869;52.238;10.716;2023-03-30T18:36:20;12.07;;;3.23;;
21416;SDS011;10869;52.238;10.716;2023-03-30T18:38:49;9.80;;;2.93;;
21416;SDS011;10869;52.238;10.716;2023-03-30T18:41:16;10.67;;;3.70;;
21416;SDS011;10869;52.238;10.716;2023-03-30T18:43:41;13.20;;;3.03;;
21416;SDS011;10869;52.238;10.716;2023-03-30T18:46:10;9.23;;;2.83;;
21416;SDS011;10869;52.238;10.716;2023-03-30T18:48:39;13.20;;;4.57;;
21416;SDS011;10869;52.238;10.716;2023-03-30T18:51:08;13.57;;;5.00;;
21416;SDS011;10869;52.238;10.716;2023-03-30T18:57:01;14.80;;;5.57;;
21416;SDS011;10869;52.238;10.716;2023-03-30T18:59:31;18.37;;;4.53;;
21416;SDS011;10869;52.238;10.716;2023-03-30T19:04:34;14.67;;;3.73;;
21416;SDS011;10869;52.238;10.716;2023-03-30T19:07:00;14.40;;;4.93;;
21416;SDS011;10869;52.238;10.716;2023-03-30T19:09:26;12.80;;;4.70;;
21416;SDS011;10869;52.238;10.716;2023-03-30T19:11:52;19.37;;;4.23;;
21416;SDS011;10869;52.238;10.716;2023-03-30T19:14:17;9.93;;;3.67;;
21416;SDS011;10869;52.238;10.716;2023-03-30T19:22:00;18.33;;;3.83;;
21416;SDS011;10869;52.238;10.716;2023-03-30T19:24:26;15.60;;;3.60;;
21416;SDS011;10869;52.238;10.716;2023-03-30T19:29:29;11.83;;;3.53;;
21416;SDS011;10869;52.238;10.716;2023-03-30T19:31:56;8.63;;;3.00;;
21416;SDS011;10869;52.238;10.716;2023-03-30T19:34:44;7.73;;;2.80;;
